sensor_id;sensor_type;location;lat;lon;timestamp;P1;durP1;ratioP1;P2;durP2;ratioP2
42670;SDS011;28283;55.426;37.756;2023-07-13T00:00:46;2.58;;;0.98;;
42670;SDS011;28283;55.426;37.756;2023-07-13T00:05:52;1.58;;;1.48;;
42670;SDS011;28283;55.426;37.756;2023-07-13T00:10:57;1.88;;;1.23;;
42670;SDS011;28283;55.426;37.756;2023-07-13T00:16:00;1.60;;;1.38;;
42670;SDS011;28283;55.426;37.756;2023-07-13T00:21:01;1.30;;;0.88;;
42670;SDS011;28283;55.426;37.756;2023-07-13T00:26:06;1.92;;;1.30;;
42670;SDS011;28283;55.426;37.756;2023-07-13T00:31:09;2.75;;;1.25;;
42670;SDS011;28283;55.426;37.756;2023-07-13T00:36:11;0.98;;;0.98;;
42670;SDS011;28283;55.426;37.756;2023-07-13T00:41:11;1.98;;;0.80;;
42670;SDS011;28283;55.426;37.756;2023-07-13T00:46:23;2.80;;;1.17;;
42670;SDS011;28283;55.426;37.756;2023-07-13T00:51:28;2.10;;;0.93;;
42670;SDS011;28283;55.426;37.756;2023-07-13T00:56:32;1.98;;;0.90;;
42670;SDS011;28283;55.426;37.756;2023-07-13T01:01:34;1.05;;;0.95;;
42670;SDS011;28283;55.426;37.756;2023-07-13T01:06:37;1.17;;;1.00;;
42670;SDS011;28283;55.426;37.756;2023-07-13T01:11:39;2.33;;;1.20;;
42670;SDS011;28283;55.426;37.756;2023-07-13T01:16:41;1.88;;;0.82;;
42670;SDS011;28283;55.426;37.756;2023-07-13T01:21:43;1.45;;;0.80;;
42670;SDS011;28283;55.426;37.756;2023-07-13T01:26:43;0.40;;;0.40;;
42670;SDS011;28283;55.426;37.756;2023-07-13T01:31:44;1.13;;;0.97;;
42670;SDS011;28283;55.426;37.756;2023-07-13T01:36:45;1.23;;;1.02;;
42670;SDS011;28283;55.426;37.756;2023-07-13T01:41:45;1.67;;;1.08;;
42670;SDS011;28283;55.426;37.756;2023-07-13T01:46:46;1.23;;;1.00;;
42670;SDS011;28283;55.426;37.756;2023-07-13T01:51:47;1.58;;;1.15;;
42670;SDS011;28283;55.426;37.756;2023-07-13T01:56:48;1.67;;;1.17;;
42670;SDS011;28283;55.426;37.756;2023-07-13T02:01:48;1.00;;;1.00;;
42670;SDS011;28283;55.426;37.756;2023-07-13T02:06:49;3.97;;;1.20;;
42670;SDS011;28283;55.426;37.756;2023-07-13T02:11:50;1.77;;;1.08;;
42670;SDS011;28283;55.426;37.756;2023-07-13T02:16:50;2.75;;;1.25;;
42670;SDS011;28283;55.426;37.756;2023-07-13T02:21:51;2.63;;;1.40;;
42670;SDS011;28283;55.426;37.756;2023-07-13T02:26:51;1.33;;;1.23;;
42670;SDS011;28283;55.426;37.756;2023-07-13T02:31:52;2.17;;;1.30;;
42670;SDS011;28283;55.426;37.756;2023-07-13T02:36:52;1.30;;;1.20;;
42670;SDS011;28283;55.426;37.756;2023-07-13T02:41:53;1.50;;;0.83;;
42670;SDS011;28283;55.426;37.756;2023-07-13T02:46:54;1.30;;;1.20;;
42670;SDS011;28283;55.426;37.756;2023-07-13T02:51:54;1.83;;;1.25;;
42670;SDS011;28283;55.426;37.756;2023-07-13T02:56:55;3.83;;;1.53;;
42670;SDS011;28283;55.426;37.756;2023-07-13T03:01:56;4.80;;;2.07;;
42670;SDS011;28283;55.426;37.756;2023-07-13T03:06:56;3.17;;;1.52;;
42670;SDS011;28283;55.426;37.756;2023-07-13T03:11:58;2.10;;;1.92;;
42670;SDS011;28283;55.426;37.756;2023-07-13T03:16:58;2.58;;;1.08;;
42670;SDS011;28283;55.426;37.756;2023-07-13T03:21:59;1.50;;;1.27;;
42670;SDS011;28283;55.426;37.756;2023-07-13T03:27:04;3.28;;;1.30;;
42670;SDS011;28283;55.426;37.756;2023-07-13T03:32:05;1.08;;;1.00;;
42670;SDS011;28283;55.426;37.756;2023-07-13T03:37:06;1.48;;;1.27;;
42670;SDS011;28283;55.426;37.756;2023-07-13T03:42:07;1.20;;;1.00;;
42670;SDS011;28283;55.426;37.756;2023-07-13T03:47:08;5.95;;;1.40;;
42670;SDS011;28283;55.426;37.756;2023-07-13T03:52:09;0.93;;;0.60;;
42670;SDS011;28283;55.426;37.756;2023-07-13T03:57:09;2.50;;;0.80;;
42670;SDS011;28283;55.426;37.756;2023-07-13T04:02:10;2.95;;;1.45;;
42670;SDS011;28283;55.426;37.756;2023-07-13T04:07:11;3.15;;;1.33;;
42670;SDS011;28283;55.426;37.756;2023-07-13T04:12:11;3.03;;;1.20;;
42670;SDS011;28283;55.426;37.756;2023-07-13T04:17:12;4.03;;;1.43;;
42670;SDS011;28283;55.426;37.756;2023-07-13T04:22:13;2.55;;;1.30;;
42670;SDS011;28283;55.426;37.756;2023-07-13T04:27:14;1.95;;;0.60;;
42670;SDS011;28283;55.426;37.756;2023-07-13T04:32:14;2.17;;;1.33;;
42670;SDS011;28283;55.426;37.756;2023-07-13T04:37:15;1.73;;;1.40;;
42670;SDS011;28283;55.426;37.756;2023-07-13T04:42:15;2.53;;;1.40;;
42670;SDS011;28283;55.426;37.756;2023-07-13T04:47:16;5.35;;;0.90;;
42670;SDS011;28283;55.426;37.756;2023-07-13T04:52:18;2.17;;;1.60;;
42670;SDS011;28283;55.426;37.756;2023-07-13T04:57:19;4.15;;;1.85;;
42670;SDS011;28283;55.426;37.756;2023-07-13T05:02:22;5.05;;;1.85;;
42670;SDS011;28283;55.426;37.756;2023-07-13T05:07:23;1.67;;;1.00;;
42670;SDS011;28283;55.426;37.756;2023-07-13T05:12:25;1.95;;;0.70;;
42670;SDS011;28283;55.426;37.756;2023-07-13T05:22:26;2.22;;;1.60;;
42670;SDS011;28283;55.426;37.756;2023-07-13T05:27:27;3.33;;;1.80;;
42670;SDS011;28283;55.426;37.756;2023-07-13T05:32:27;2.33;;;1.70;;
42670;SDS011;28283;55.426;37.756;2023-07-13T05:37:28;3.15;;;1.60;;
42670;SDS011;28283;55.426;37.756;2023-07-13T05:42:29;3.40;;;1.20;;
42670;SDS011;28283;55.426;37.756;2023-07-13T05:47:31;3.08;;;1.60;;
42670;SDS011;28283;55.426;37.756;2023-07-13T05:52:31;1.10;;;1.00;;
42670;SDS011;28283;55.426;37.756;2023-07-13T06:02:33;1.30;;;0.70;;
42670;SDS011;28283;55.426;37.756;2023-07-13T06:07:34;2.40;;;1.23;;
42670;SDS011;28283;55.426;37.756;2023-07-13T06:12:34;2.47;;;0.98;;
42670;SDS011;28283;55.426;37.756;2023-07-13T06:17:35;3.00;;;1.00;;
42670;SDS011;28283;55.426;37.756;2023-07-13T06:22:36;2.33;;;0.97;;
42670;SDS011;28283;55.426;37.756;2023-07-13T06:27:36;2.55;;;1.20;;
42670;SDS011;28283;55.426;37.756;2023-07-13T06:32:37;4.63;;;1.85;;
42670;SDS011;28283;55.426;37.756;2023-07-13T06:37:38;2.08;;;0.88;;
42670;SDS011;28283;55.426;37.756;2023-07-13T06:42:38;1.93;;;1.20;;
42670;SDS011;28283;55.426;37.756;2023-07-13T06:47:39;3.63;;;1.00;;
42670;SDS011;28283;55.426;37.756;2023-07-13T06:52:39;1.67;;;1.13;;
42670;SDS011;28283;55.426;37.756;2023-07-13T06:57:40;2.17;;;0.50;;
42670;SDS011;28283;55.426;37.756;2023-07-13T07:02:40;1.08;;;0.98;;
42670;SDS011;28283;55.426;37.756;2023-07-13T07:07:41;2.77;;;0.60;;
42670;SDS011;28283;55.426;37.756;2023-07-13T07:17:42;0.95;;;0.95;;
42670;SDS011;28283;55.426;37.756;2023-07-13T07:27:44;1.75;;;0.60;;
42670;SDS011;28283;55.426;37.756;2023-07-13T07:32:45;2.03;;;0.95;;
42670;SDS011;28283;55.426;37.756;2023-07-13T07:37:46;1.27;;;1.00;;
42670;SDS011;28283;55.426;37.756;2023-07-13T07:47:47;1.23;;;0.90;;
42670;SDS011;28283;55.426;37.756;2023-07-13T07:52:48;0.90;;;0.88;;
42670;SDS011;28283;55.426;37.756;2023-07-13T07:57:48;1.33;;;0.70;;
42670;SDS011;28283;55.426;37.756;2023-07-13T08:02:49;2.65;;;1.20;;
42670;SDS011;28283;55.426;37.756;2023-07-13T08:07:50;2.40;;;1.10;;
42670;SDS011;28283;55.426;37.756;2023-07-13T08:12:50;1.38;;;1.27;;
42670;SDS011;28283;55.426;37.756;2023-07-13T08:17:51;1.02;;;0.73;;
42670;SDS011;28283;55.426;37.756;2023-07-13T08:27:52;0.95;;;0.95;;
42670;SDS011;28283;55.426;37.756;2023-07-13T08:32:53;6.67;;;1.03;;
42670;SDS011;28283;55.426;37.756;2023-07-13T08:37:53;0.60;;;0.43;;
42670;SDS011;28283;55.426;37.756;2023-07-13T08:42:55;2.10;;;0.80;;
42670;SDS011;28283;55.426;37.756;2023-07-13T08:48:01;1.75;;;0.90;;
42670;SDS011;28283;55.426;37.756;2023-07-13T08:53:23;1.02;;;0.63;;
42670;SDS011;28283;55.426;37.756;2023-07-13T08:58:29;1.52;;;1.05;;
42670;SDS011;28283;55.426;37.756;2023-07-13T09:03:34;0.50;;;0.50;;
42670;SDS011;28283;55.426;37.756;2023-07-13T09:19:11;1.67;;;1.40;;
42670;SDS011;28283;55.426;37.756;2023-07-13T09:29:28;1.85;;;0.65;;
42670;SDS011;28283;55.426;37.756;2023-07-13T09:34:33;1.13;;;1.02;;
42670;SDS011;28283;55.426;37.756;2023-07-13T09:39:35;0.55;;;0.50;;
42670;SDS011;28283;55.426;37.756;2023-07-13T09:44:50;4.18;;;1.45;;
42670;SDS011;28283;55.426;37.756;2023-07-13T09:49:55;1.38;;;1.05;;
42670;SDS011;28283;55.426;37.756;2023-07-13T09:54:58;0.85;;;0.70;;
42670;SDS011;28283;55.426;37.756;2023-07-13T10:10:13;3.28;;;1.45;;
42670;SDS011;28283;55.426;37.756;2023-07-13T10:15:17;4.80;;;1.90;;
42670;SDS011;28283;55.426;37.756;2023-07-13T10:20:20;2.67;;;1.42;;
42670;SDS011;28283;55.426;37.756;2023-07-13T10:25:23;2.22;;;1.35;;
42670;SDS011;28283;55.426;37.756;2023-07-13T10:30:27;7.10;;;1.45;;
42670;SDS011;28283;55.426;37.756;2023-07-13T10:35:32;5.38;;;2.10;;
42670;SDS011;28283;55.426;37.756;2023-07-13T10:40:34;1.92;;;1.05;;
42670;SDS011;28283;55.426;37.756;2023-07-13T10:45:39;2.55;;;1.20;;
42670;SDS011;28283;55.426;37.756;2023-07-13T10:50:41;3.58;;;1.45;;
42670;SDS011;28283;55.426;37.756;2023-07-13T11:00:49;2.72;;;0.90;;
42670;SDS011;28283;55.426;37.756;2023-07-13T11:06:05;1.13;;;1.02;;
42670;SDS011;28283;55.426;37.756;2023-07-13T11:21:34;1.02;;;0.95;;
42670;SDS011;28283;55.426;37.756;2023-07-13T11:31:51;6.70;;;2.30;;
42670;SDS011;28283;55.426;37.756;2023-07-13T11:36:57;5.65;;;1.50;;
42670;SDS011;28283;55.426;37.756;2023-07-13T11:42:00;3.85;;;2.47;;
42670;SDS011;28283;55.426;37.756;2023-07-13T11:47:09;4.38;;;2.03;;
42670;SDS011;28283;55.426;37.756;2023-07-13T11:52:12;1.63;;;0.98;;
42670;SDS011;28283;55.426;37.756;2023-07-13T11:57:30;2.30;;;1.88;;
42670;SDS011;28283;55.426;37.756;2023-07-13T12:02:36;2.38;;;1.90;;
42670;SDS011;28283;55.426;37.756;2023-07-13T12:07:41;1.95;;;1.45;;
42670;SDS011;28283;55.426;37.756;2023-07-13T12:12:47;3.72;;;1.40;;
42670;SDS011;28283;55.426;37.756;2023-07-13T12:17:49;3.72;;;1.52;;
42670;SDS011;28283;55.426;37.756;2023-07-13T12:22:50;1.55;;;0.98;;
42670;SDS011;28283;55.426;37.756;2023-07-13T12:27:52;3.33;;;1.15;;
42670;SDS011;28283;55.426;37.756;2023-07-13T12:33:11;0.75;;;0.68;;
42670;SDS011;28283;55.426;37.756;2023-07-13T12:38:12;2.40;;;1.08;;
42670;SDS011;28283;55.426;37.756;2023-07-13T12:48:15;1.70;;;1.60;;
42670;SDS011;28283;55.426;37.756;2023-07-13T12:53:19;2.83;;;1.65;;
42670;SDS011;28283;55.426;37.756;2023-07-13T13:03:34;2.03;;;0.90;;
42670;SDS011;28283;55.426;37.756;2023-07-13T13:08:37;1.77;;;1.05;;
42670;SDS011;28283;55.426;37.756;2023-07-13T13:13:41;2.47;;;1.88;;
42670;SDS011;28283;55.426;37.756;2023-07-13T13:18:42;7.65;;;3.45;;
42670;SDS011;28283;55.426;37.756;2023-07-13T13:23:42;1.10;;;1.05;;
42670;SDS011;28283;55.426;37.756;2023-07-13T13:28:44;1.85;;;0.98;;
42670;SDS011;28283;55.426;37.756;2023-07-13T13:33:45;6.25;;;1.48;;
42670;SDS011;28283;55.426;37.756;2023-07-13T13:38:48;4.70;;;1.55;;
42670;SDS011;28283;55.426;37.756;2023-07-13T13:43:51;5.50;;;1.30;;
42670;SDS011;28283;55.426;37.756;2023-07-13T13:48:51;4.65;;;1.40;;
42670;SDS011;28283;55.426;37.756;2023-07-13T13:53:52;4.57;;;1.97;;
42670;SDS011;28283;55.426;37.756;2023-07-13T13:58:53;1.30;;;1.00;;
42670;SDS011;28283;55.426;37.756;2023-07-13T14:03:54;2.75;;;1.13;;
42670;SDS011;28283;55.426;37.756;2023-07-13T14:08:54;3.17;;;1.02;;
42670;SDS011;28283;55.426;37.756;2023-07-13T14:13:56;2.83;;;1.17;;
42670;SDS011;28283;55.426;37.756;2023-07-13T14:18:59;2.45;;;1.10;;
42670;SDS011;28283;55.426;37.756;2023-07-13T14:29:00;2.33;;;1.70;;
42670;SDS011;28283;55.426;37.756;2023-07-13T14:34:01;5.20;;;1.80;;
42670;SDS011;28283;55.426;37.756;2023-07-13T14:39:05;5.80;;;0.80;;
42670;SDS011;28283;55.426;37.756;2023-07-13T14:54:35;1.73;;;0.88;;
42670;SDS011;28283;55.426;37.756;2023-07-13T14:59:35;4.67;;;1.40;;
42670;SDS011;28283;55.426;37.756;2023-07-13T15:04:36;2.00;;;1.33;;
42670;SDS011;28283;55.426;37.756;2023-07-13T15:09:36;2.88;;;1.30;;
42670;SDS011;28283;55.426;37.756;2023-07-13T15:14:37;2.28;;;1.10;;
42670;SDS011;28283;55.426;37.756;2023-07-13T15:19:38;1.42;;;1.33;;
42670;SDS011;28283;55.426;37.756;2023-07-13T15:24:39;2.93;;;1.57;;
42670;SDS011;28283;55.426;37.756;2023-07-13T15:29:39;4.27;;;1.97;;
42670;SDS011;28283;55.426;37.756;2023-07-13T15:34:43;3.83;;;1.42;;
42670;SDS011;28283;55.426;37.756;2023-07-13T15:39:43;2.00;;;1.40;;
42670;SDS011;28283;55.426;37.756;2023-07-13T15:44:44;2.47;;;1.83;;
42670;SDS011;28283;55.426;37.756;2023-07-13T15:54:46;2.47;;;2.13;;
42670;SDS011;28283;55.426;37.756;2023-07-13T15:59:47;5.28;;;2.22;;
42670;SDS011;28283;55.426;37.756;2023-07-13T16:04:48;4.67;;;2.23;;
42670;SDS011;28283;55.426;37.756;2023-07-13T16:09:49;6.15;;;2.40;;
42670;SDS011;28283;55.426;37.756;2023-07-13T16:14:50;3.83;;;2.63;;
42670;SDS011;28283;55.426;37.756;2023-07-13T16:19:50;5.63;;;3.15;;
42670;SDS011;28283;55.426;37.756;2023-07-13T16:24:52;5.90;;;2.58;;
42670;SDS011;28283;55.426;37.756;2023-07-13T16:29:56;3.97;;;2.55;;
42670;SDS011;28283;55.426;37.756;2023-07-13T16:34:58;4.75;;;2.90;;
42670;SDS011;28283;55.426;37.756;2023-07-13T16:45:01;3.03;;;1.92;;
42670;SDS011;28283;55.426;37.756;2023-07-13T16:50:01;3.05;;;2.22;;
42670;SDS011;28283;55.426;37.756;2023-07-13T16:55:04;5.78;;;2.40;;
42670;SDS011;28283;55.426;37.756;2023-07-13T17:00:08;3.95;;;1.90;;
42670;SDS011;28283;55.426;37.756;2023-07-13T17:05:19;3.80;;;2.08;;
42670;SDS011;28283;55.426;37.756;2023-07-13T17:10:20;4.75;;;2.42;;
42670;SDS011;28283;55.426;37.756;2023-07-13T17:15:23;5.47;;;2.55;;
42670;SDS011;28283;55.426;37.756;2023-07-13T17:20:29;4.32;;;2.85;;
42670;SDS011;28283;55.426;37.756;2023-07-13T17:25:31;2.17;;;1.83;;
42670;SDS011;28283;55.426;37.756;2023-07-13T17:30:31;2.77;;;2.10;;
42670;SDS011;28283;55.426;37.756;2023-07-13T17:35:33;3.53;;;2.00;;
42670;SDS011;28283;55.426;37.756;2023-07-13T17:40:38;4.50;;;1.90;;
42670;SDS011;28283;55.426;37.756;2023-07-13T17:45:40;3.90;;;2.22;;
42670;SDS011;28283;55.426;37.756;2023-07-13T17:50:41;2.43;;;2.23;;
42670;SDS011;28283;55.426;37.756;2023-07-13T17:55:44;4.90;;;2.67;;
42670;SDS011;28283;55.426;37.756;2023-07-13T18:00:45;2.40;;;1.98;;
42670;SDS011;28283;55.426;37.756;2023-07-13T18:05:49;4.10;;;2.25;;
42670;SDS011;28283;55.426;37.756;2023-07-13T18:10:51;1.98;;;1.70;;
42670;SDS011;28283;55.426;37.756;2023-07-13T18:15:52;4.88;;;2.05;;
42670;SDS011;28283;55.426;37.756;2023-07-13T18:20:53;4.32;;;2.22;;
42670;SDS011;28283;55.426;37.756;2023-07-13T18:25:54;4.47;;;1.90;;
42670;SDS011;28283;55.426;37.756;2023-07-13T18:30:55;2.23;;;1.93;;
42670;SDS011;28283;55.426;37.756;2023-07-13T18:35:58;2.58;;;2.05;;
42670;SDS011;28283;55.426;37.756;2023-07-13T18:41:01;3.65;;;2.63;;
42670;SDS011;28283;55.426;37.756;2023-07-13T18:46:03;3.70;;;2.40;;
42670;SDS011;28283;55.426;37.756;2023-07-13T18:51:12;4.35;;;1.73;;
42670;SDS011;28283;55.426;37.756;2023-07-13T18:56:13;5.38;;;2.55;;
42670;SDS011;28283;55.426;37.756;2023-07-13T19:01:23;1.90;;;1.63;;
42670;SDS011;28283;55.426;37.756;2023-07-13T19:06:30;2.25;;;1.65;;
42670;SDS011;28283;55.426;37.756;2023-07-13T19:16:31;5.35;;;1.98;;
42670;SDS011;28283;55.426;37.756;2023-07-13T19:21:36;3.58;;;2.20;;
42670;SDS011;28283;55.426;37.756;2023-07-13T19:26:40;2.80;;;1.98;;
42670;SDS011;28283;55.426;37.756;2023-07-13T19:31:40;1.55;;;1.45;;
42670;SDS011;28283;55.426;37.756;2023-07-13T19:36:42;3.10;;;2.30;;
42670;SDS011;28283;55.426;37.756;2023-07-13T19:41:43;4.03;;;2.70;;
42670;SDS011;28283;55.426;37.756;2023-07-13T19:46:44;4.60;;;2.90;;
42670;SDS011;28283;55.426;37.756;2023-07-13T19:51:45;4.07;;;2.70;;
42670;SDS011;28283;55.426;37.756;2023-07-13T19:56:48;5.53;;;3.08;;
42670;SDS011;28283;55.426;37.756;2023-07-13T20:01:48;8.87;;;4.90;;
42670;SDS011;28283;55.426;37.756;2023-07-13T20:06:49;5.25;;;4.60;;
42670;SDS011;28283;55.426;37.756;2023-07-13T20:11:50;7.78;;;4.10;;
42670;SDS011;28283;55.426;37.756;2023-07-13T20:17:01;3.97;;;3.60;;
42670;SDS011;28283;55.426;37.756;2023-07-13T20:22:04;4.78;;;3.55;;
42670;SDS011;28283;55.426;37.756;2023-07-13T20:27:04;6.30;;;4.07;;
42670;SDS011;28283;55.426;37.756;2023-07-13T20:32:07;5.35;;;3.70;;
42670;SDS011;28283;55.426;37.756;2023-07-13T20:37:30;7.85;;;3.58;;
42670;SDS011;28283;55.426;37.756;2023-07-13T20:42:31;5.63;;;3.63;;
42670;SDS011;28283;55.426;37.756;2023-07-13T20:47:31;6.03;;;3.70;;
42670;SDS011;28283;55.426;37.756;2023-07-13T20:52:32;4.07;;;3.33;;
42670;SDS011;28283;55.426;37.756;2023-07-13T20:57:36;4.75;;;3.53;;
42670;SDS011;28283;55.426;37.756;2023-07-13T21:02:37;3.20;;;2.15;;
42670;SDS011;28283;55.426;37.756;2023-07-13T21:07:38;3.58;;;2.85;;
42670;SDS011;28283;55.426;37.756;2023-07-13T21:12:38;4.55;;;3.28;;
42670;SDS011;28283;55.426;37.756;2023-07-13T21:17:39;2.43;;;2.23;;
42670;SDS011;28283;55.426;37.756;2023-07-13T21:22:41;5.57;;;3.83;;
42670;SDS011;28283;55.426;37.756;2023-07-13T21:27:41;5.00;;;2.53;;
42670;SDS011;28283;55.426;37.756;2023-07-13T21:32:43;3.60;;;3.30;;
42670;SDS011;28283;55.426;37.756;2023-07-13T21:37:44;7.28;;;3.63;;
42670;SDS011;28283;55.426;37.756;2023-07-13T21:42:45;4.72;;;3.45;;
42670;SDS011;28283;55.426;37.756;2023-07-13T21:47:46;4.50;;;3.85;;
42670;SDS011;28283;55.426;37.756;2023-07-13T21:52:48;4.25;;;2.10;;
42670;SDS011;28283;55.426;37.756;2023-07-13T21:57:49;2.53;;;2.30;;
42670;SDS011;28283;55.426;37.756;2023-07-13T22:02:52;2.35;;;1.50;;
42670;SDS011;28283;55.426;37.756;2023-07-13T22:07:57;3.85;;;2.65;;
42670;SDS011;28283;55.426;37.756;2023-07-13T22:12:58;2.17;;;1.93;;
42670;SDS011;28283;55.426;37.756;2023-07-13T22:17:58;3.27;;;2.03;;
42670;SDS011;28283;55.426;37.756;2023-07-13T22:23:06;3.60;;;3.30;;
42670;SDS011;28283;55.426;37.756;2023-07-13T22:28:16;4.88;;;3.22;;
42670;SDS011;28283;55.426;37.756;2023-07-13T22:33:22;4.75;;;2.60;;
42670;SDS011;28283;55.426;37.756;2023-07-13T22:38:24;3.65;;;3.20;;
42670;SDS011;28283;55.426;37.756;2023-07-13T22:43:28;5.45;;;3.47;;
42670;SDS011;28283;55.426;37.756;2023-07-13T22:53:57;7.05;;;3.42;;
42670;SDS011;28283;55.426;37.756;2023-07-13T22:58:58;5.35;;;3.35;;
42670;SDS011;28283;55.426;37.756;2023-07-13T23:03:58;3.80;;;3.03;;
42670;SDS011;28283;55.426;37.756;2023-07-13T23:09:00;4.57;;;3.40;;
42670;SDS011;28283;55.426;37.756;2023-07-13T23:14:02;2.78;;;2.42;;
42670;SDS011;28283;55.426;37.756;2023-07-13T23:19:03;3.28;;;2.92;;
42670;SDS011;28283;55.426;37.756;2023-07-13T23:24:04;3.03;;;1.85;;
42670;SDS011;28283;55.426;37.756;2023-07-13T23:29:11;3.67;;;2.72;;
42670;SDS011;28283;55.426;37.756;2023-07-13T23:39:15;2.65;;;2.10;;
42670;SDS011;28283;55.426;37.756;2023-07-13T23:44:17;3.55;;;1.83;;
42670;SDS011;28283;55.426;37.756;2023-07-13T23:54:30;7.53;;;2.83;;
42670;SDS011;28283;55.426;37.756;2023-07-13T23:59:32;4.63;;;3.17;;
